^^
Grace C. Lehan Memorial Weather Station Historical Data
Daily Summary for April 11, 2021 Units:  English    Metric   Both
Daily Weekly Monthly Yearly
  High: Low: Average:
Temperature: 34.3 °F 22.3 °F 26.7 °F
Dew Point: 21.7 °F 11.1 °F 17.2 °F
Humidity: 90% 51.3% 68%
Wind Speed: 6.9mph 0mph 1.7mph
Wind Gust: 16mph - -
Wind- - NW
Pressure: 30.29 in 30.18 in -
Precipitation: 0.02 in    
 
 
Tabular Data for April 11, 2021
Time Temperature Dew Point Pressure Wind Wind Speed Wind Gust Humidity Rainfall Rate (Hourly) solar
00:04 25.4 °F 16.9 °F 30.28 in Calm     69.7% 0.00 in 0 W/m2
00:09 25.3 °F 16.9 °F 30.28 in Calm     70% 0.00 in 0 W/m2
00:14 25.3 °F 16.7 °F 30.27 in Calm     69.4% 0.00 in 0 W/m2
00:19 25.2 °F 16.5 °F 30.27 in Calm     69% 0.00 in 0 W/m2
00:24 25.2 °F 16.5 °F 30.27 in Calm     69% 0.00 in 0 W/m2
00:29 25.2 °F 16.6 °F 30.27 in Calm     69.5% 0.00 in 0 W/m2
00:34 25.2 °F 16.8 °F 30.27 in Calm     70% 0.00 in 0 W/m2
00:39 25.1 °F 16.7 °F 30.27 in Calm     70% 0.00 in 0 W/m2
00:44 25.1 °F 16.7 °F 30.26 in Calm     70% 0.00 in 0 W/m2
00:49 25.1 °F 16.4 °F 30.26 in Calm     69.2% 0.00 in 0 W/m2
00:54 25 °F 16.3 °F 30.26 in Calm     69% 0.00 in 0 W/m2
00:59 25.1 °F 16.4 °F 30.27 in Calm     69% 0.00 in 0 W/m2
01:04 25.1 °F 16.5 °F 30.27 in Calm     69.2% 0.00 in 0 W/m2
01:09 25.2 °F 16.7 °F 30.26 in Calm     69.8% 0.00 in 0 W/m2
01:14 25.1 °F 16.3 °F 30.27 in Calm     68.7% 0.00 in 0 W/m2
01:19 25.2 °F 16.1 °F 30.27 in Calm     68% 0.00 in 0 W/m2
01:24 25.2 °F 16.1 °F 30.26 in Calm     68% 0.00 in 0 W/m2
01:29 25.2 °F 16.1 °F 30.26 in Calm     68% 0.00 in 0 W/m2
01:34 25.2 °F 16.1 °F 30.26 in Calm     68% 0.00 in 0 W/m2
01:39 25.2 °F 16.1 °F 30.26 in Calm     68% 0.00 in 0 W/m2
01:44 25.2 °F 16.1 °F 30.26 in Calm     68% 0.00 in 0 W/m2
01:49 25.1 °F 16.5 °F 30.26 in Calm     69.3% 0.00 in 0 W/m2
01:54 25.1 °F 16.8 °F 30.26 in Calm     70.4% 0.00 in 0 W/m2
01:59 25.1 °F 17 °F 30.26 in Calm     71% 0.00 in 0 W/m2
02:04 25 °F 17.3 °F 30.26 in Calm     71.9% 0.00 in 0 W/m2
02:09 25 °F 17.4 °F 30.26 in Calm     72.6% 0.00 in 0 W/m2
02:14 24.9 °F 17.5 °F 30.26 in Calm     73.2% 0.00 in 0 W/m2
02:19 24.8 °F 17.9 °F 30.26 in Calm     74.5% 0.00 in 0 W/m2
02:24 24.7 °F 18.2 °F 30.26 in Calm     75.8% 0.00 in 0 W/m2
02:29 24.6 °F 18.4 °F 30.26 in Calm     76.9% 0.00 in 0 W/m2
02:34 24.5 °F 18.6 °F 30.26 in Calm     78% 0.00 in 0 W/m2
02:39 24.4 °F 18.8 °F 30.27 in Calm     79% 0.00 in 0 W/m2
02:44 24.3 °F 19 °F 30.27 in NNW 0.1 mph 2 mph 80% 0.00 in 0 W/m2
02:49 24.2 °F 19.1 °F 30.26 in NNW 0.4 mph 2 mph 80.7% 0.00 in 0 W/m2
02:54 24.1 °F 19.2 °F 30.26 in Calm   2 mph 81.5% 0.00 in 0 W/m2
02:59 24 °F 19.3 °F 30.26 in Calm   2 mph 82% 0.00 in 0 W/m2
03:04 23.8 °F 19.3 °F 30.26 in Calm   2 mph 82.6% 0.00 in 0 W/m2
03:09 23.8 °F 19.4 °F 30.26 in Calm     83% 0.00 in 0 W/m2
03:14 23.7 °F 19.6 °F 30.26 in Calm     83.9% 0.00 in 0 W/m2
03:19 23.6 °F 19.5 °F 30.26 in Calm     84% 0.00 in 0 W/m2
03:24 23.6 °F 19.6 °F 30.26 in Calm     84.4% 0.00 in 0 W/m2
03:29 23.6 °F 19.7 °F 30.26 in Calm     85% 0.00 in 0 W/m2
03:34 23.5 °F 19.7 °F 30.26 in Calm     85% 0.00 in 0 W/m2
03:39 23.5 °F 19.7 °F 30.26 in Calm     85% 0.00 in 0 W/m2
03:44 23.4 °F 19.6 °F 30.26 in Calm     85% 0.00 in 0 W/m2
03:49 23.4 °F 19.8 °F 30.26 in Calm     85.9% 0.00 in 0 W/m2
03:54 23.3 °F 19.8 °F 30.26 in Calm     86% 0.00 in 0 W/m2
03:59 23.3 °F 19.7 °F 30.26 in Calm     86% 0.00 in 0 W/m2
04:04 23.3 °F 19.7 °F 30.26 in Calm     86% 0.00 in 0 W/m2
04:09 23.2 °F 19.9 °F 30.25 in Calm     87% 0.00 in 0 W/m2
04:14 23.2 °F 19.9 °F 30.25 in Calm     87% 0.00 in 0 W/m2
04:19 23.1 °F 19.8 °F 30.26 in Calm     87% 0.00 in 0 W/m2
04:24 23.1 °F 19.8 °F 30.26 in Calm     87% 0.00 in 0 W/m2
04:29 23.1 °F 20 °F 30.26 in Calm     87.5% 0.00 in 0 W/m2
04:34 23.1 °F 20.1 °F 30.26 in Calm     88% 0.00 in 0 W/m2
04:39 23.1 °F 20.1 °F 30.26 in Calm     88% 0.00 in 0 W/m2
04:44 23.1 °F 20.1 °F 30.26 in Calm     88% 0.00 in 0 W/m2
04:49 23 °F 20 °F 30.26 in Calm     88% 0.00 in 0 W/m2
04:54 23 °F 20 °F 30.26 in Calm     88% 0.00 in 0 W/m2
04:59 22.9 °F 19.9 °F 30.25 in Calm     88% 0.00 in 0 W/m2
05:04 22.9 °F 19.8 °F 30.25 in Calm     88% 0.00 in 0 W/m2
05:09 22.8 °F 19.8 °F 30.25 in Calm     88% 0.00 in 0 W/m2
05:14 22.8 °F 19.7 °F 30.25 in Calm     88% 0.00 in 0 W/m2
05:19 22.7 °F 19.7 °F 30.26 in Calm     88% 0.00 in 0 W/m2
05:24 22.6 °F 19.6 °F 30.26 in Calm     88% 0.00 in 0 W/m2
05:29 22.5 °F 19.5 °F 30.26 in Calm     88% 0.00 in 0 W/m2
05:34 22.5 °F 19.5 °F 30.26 in Calm     88% 0.00 in 0 W/m2
05:39 22.4 °F 19.4 °F 30.26 in Calm     88% 0.00 in 0 W/m2
05:44 22.3 °F 19.3 °F 30.26 in Calm     88% 0.00 in 0 W/m2
05:49 22.3 °F 19.3 °F 30.26 in Calm     88% 0.00 in 0 W/m2
05:54 22.3 °F 19.4 °F 30.26 in Calm     88.5% 0.00 in 0 W/m2
05:59 22.3 °F 19.6 °F 30.26 in Calm     89% 0.00 in 0 W/m2
06:04 22.4 °F 19.6 °F 30.26 in Calm     89% 0.00 in 0 W/m2
06:09 22.4 °F 19.7 °F 30.25 in Calm     89% 0.00 in 0 W/m2
06:14 22.4 °F 19.7 °F 30.25 in Calm     89% 0.00 in 0 W/m2
06:19 22.4 °F 19.7 °F 30.25 in Calm     89% 0.00 in 0 W/m2
06:24 22.4 °F 19.7 °F 30.25 in Calm     89% 0.00 in 0 W/m2
06:29 22.4 °F 19.7 °F 30.25 in Calm     89% 0.00 in 0 W/m2
06:34 22.4 °F 19.7 °F 30.25 in Calm     89% 0.00 in 0 W/m2
06:39 22.4 °F 19.6 °F 30.25 in Calm     89% 0.00 in 0 W/m2
06:44 22.4 °F 19.6 °F 30.24 in Calm     89% 0.00 in 0 W/m2
06:49 22.4 °F 19.6 °F 30.24 in Calm     89% 0.00 in 0 W/m2
06:54 22.4 °F 19.6 °F 30.24 in Calm     89% 0.00 in 0 W/m2
06:59 22.4 °F 19.6 °F 30.24 in Calm     89% 0.00 in 0 W/m2
07:04 22.4 °F 19.6 °F 30.24 in Calm     89% 0.00 in 5 W/m2
07:09 22.4 °F 19.8 °F 30.24 in Calm     89.5% 0.00 in 9 W/m2
07:14 22.4 °F 19.9 °F 30.24 in Calm     89.8% 0.00 in 9 W/m2
07:19 22.5 °F 19.7 °F 30.24 in Calm     89% 0.00 in 12 W/m2
07:24 22.5 °F 19.8 °F 30.24 in Calm     89% 0.00 in 16 W/m2
07:29 22.5 °F 19.8 °F 30.24 in Calm     89% 0.00 in 18 W/m2
07:34 22.6 °F 19.9 °F 30.24 in Calm     89% 0.00 in 26 W/m2
07:39 22.6 °F 19.9 °F 30.24 in Calm     89% 0.00 in 33 W/m2
07:44 22.7 °F 20 °F 30.25 in Calm     89% 0.00 in 33 W/m2
07:49 22.9 °F 20.4 °F 30.25 in Calm     90% 0.00 in 39 W/m2
07:54 23.1 °F 20.6 °F 30.25 in Calm     90% 0.00 in 42 W/m2
07:59 23.3 °F 20.8 °F 30.25 in Calm     90% 0.00 in 40 W/m2
08:04 23.5 °F 21 °F 30.25 in Calm     90% 0.00 in 40 W/m2
08:09 23.7 °F 21.1 °F 30.25 in Calm     89.5% 0.00 in 58 W/m2
08:14 23.9 °F 21.1 °F 30.25 in Calm     89% 0.00 in 76 W/m2
08:19 24.1 °F 21.3 °F 30.25 in Calm     89% 0.00 in 76 W/m2
08:24 24.3 °F 21.5 °F 30.24 in Calm     88.8% 0.00 in 86 W/m2
08:29 24.5 °F 21.5 °F 30.24 in Calm     88.1% 0.00 in 91 W/m2
08:34 24.8 °F 21.7 °F 30.24 in Calm   1 mph 87.7% 0.00 in 67 W/m2
08:39 25 °F 21.5 °F 30.25 in Calm   1 mph 86.3% 0.00 in 54 W/m2
08:44 25.2 °F 21.5 °F 30.25 in Calm   1 mph 85.5% 0.00 in 69 W/m2
08:49 25.3 °F 21.3 °F 30.25 in Calm   1 mph 84.4% 0.00 in 81 W/m2
08:54 25.5 °F 21.2 °F 30.25 in Calm   1 mph 83.8% 0.00 in 76 W/m2
08:59 25.6 °F 21.1 °F 30.25 in Calm   1 mph 82.6% 0.00 in 76 W/m2
09:04 25.8 °F 20.7 °F 30.25 in Calm   1 mph 81% 0.00 in 83 W/m2
09:09 25.9 °F 20.5 °F 30.25 in Calm     79.8% 0.00 in 86 W/m2
09:14 26.1 °F 20.5 °F 30.25 in NNW 0.3 mph 3 mph 79.2% 0.00 in 93 W/m2
09:19 26.3 °F 20.5 °F 30.25 in Calm   3 mph 78.4% 0.00 in 97 W/m2
09:24 26.5 °F 20.3 °F 30.25 in NNW 0.3 mph 3 mph 77.2% 0.00 in 111 W/m2
09:29 26.7 °F 20 °F 30.25 in NNW 1.7 mph 5 mph 75.4% 0.00 in 114 W/m2
09:34 26.9 °F 19.6 °F 30.25 in NNW 1.2 mph 5 mph 73.6% 0.00 in 134 W/m2
09:39 27.1 °F 19.6 °F 30.25 in NNW 0.6 mph 3 mph 73% 0.00 in 120 W/m2
09:44 27.3 °F 19.6 °F 30.24 in NNW 1.5 mph 4 mph 72.5% 0.00 in 111 W/m2
09:49 27.5 °F 19.5 °F 30.24 in NNW 0.7 mph 5 mph 71.5% 0.00 in 132 W/m2
09:54 27.7 °F 19.5 °F 30.24 in NNW 0.6 mph 5 mph 71% 0.00 in 176 W/m2
09:59 28.1 °F 19.9 °F 30.24 in NNW 0.2 mph 5 mph 71% 0.00 in 179 W/m2
10:04 28.5 °F 19.6 °F 30.24 in NNW 0.2 mph 5 mph 69% 0.00 in 142 W/m2
10:09 28.8 °F 19.5 °F 30.23 in NNW 0.5 mph 3 mph 68% 0.00 in 146 W/m2
10:14 29.1 °F 19.7 °F 30.23 in NW 1.6 mph 6 mph 67.5% 0.00 in 128 W/m2
10:19 29.4 °F 19.5 °F 30.23 in NNW 2.2 mph 7 mph 66.3% 0.00 in 190 W/m2
10:24 29.6 °F 19.3 °F 30.24 in WNW 2.5 mph 9 mph 65% 0.00 in 357 W/m2
10:29 30.1 °F 20.1 °F 30.23 in NW 1.7 mph 9 mph 65.7% 0.00 in 383 W/m2
10:34 30.7 °F 20 °F 30.23 in NW 1.1 mph 9 mph 63.8% 0.00 in 357 W/m2
10:39 31.2 °F 20.2 °F 30.24 in NW 2.3 mph 11 mph 63.5% 0.00 in 492 W/m2
10:44 31.6 °F 19.7 °F 30.24 in WNW 2 mph 11 mph 61% 0.00 in 457 W/m2
10:49 31.9 °F 19.8 °F 30.23 in NNW 2.3 mph 11 mph 60.3% 0.00 in 566 W/m2
10:54 32.3 °F 19.8 °F 30.23 in North 2.6 mph 11 mph 59.5% 0.00 in 559 W/m2
10:59 32.5 °F 19.5 °F 30.23 in NNW 2 mph 11 mph 58.3% 0.00 in 483 W/m2
11:04 32.5 °F 19.3 °F 30.23 in NNW 0.5 mph 11 mph 57.9% 0.00 in 550 W/m2
11:09 32.8 °F 20.2 °F 30.23 in NNW 1 mph 6 mph 59.4% 0.00 in 543 W/m2
11:14 33.3 °F 20.2 °F 30.23 in NNW 4.2 mph 11 mph 58% 0.00 in 568 W/m2
11:19 33.5 °F 20 °F 30.23 in NW 1.6 mph 11 mph 57.4% 0.01 in 329 W/m2
11:24 33.5 °F 19.9 °F 30.23 in NNW 2.1 mph 11 mph 57% 0.01 in 315 W/m2
11:29 33.5 °F 19.9 °F 30.23 in NW 2.2 mph 11 mph 57% 0.01 in 287 W/m2
11:34 33.5 °F 19.7 °F 30.23 in NW 3.2 mph 11 mph 56.6% 0.01 in 272 W/m2
11:39 33.4 °F 19.6 °F 30.22 in NNW 1.8 mph 8 mph 56.6% 0.01 in 274 W/m2
11:44 33.2 °F 19.5 °F 30.22 in NNE 0.3 mph 8 mph 56.5% 0.01 in 288 W/m2
11:49 33.3 °F 20.2 °F 30.22 in North 2.3 mph 8 mph 58.3% 0.01 in 315 W/m2
11:54 33.5 °F 20.7 °F 30.22 in NNW 0.2 mph 8 mph 58.9% 0.01 in 292 W/m2
11:59 33.6 °F 20.4 °F 30.21 in NNW 1 mph 8 mph 57.9% 0.01 in 297 W/m2
12:00 33.6 °F 20 °F 30.21 in Calm   8 mph 57% 0.01 in 211 W/m2
12:09 33.7 °F 20.6 °F 30.21 in NNW 1.7 mph 5 mph 58.2% 0.01 in 271 W/m2
12:14 34 °F 20.3 °F 30.21 in NW 3.8 mph 11 mph 56.8% 0.01 in 309 W/m2
12:19 34.1 °F 20.5 °F 30.20 in NW 4 mph 12 mph 57% 0.01 in 309 W/m2
12:24 34.2 °F 20.7 °F 30.21 in NW 0.4 mph 12 mph 57.3% 0.01 in 287 W/m2
12:29 34.1 °F 20.3 °F 30.21 in NW 2.2 mph 12 mph 56.5% 0.01 in 292 W/m2
12:34 34 °F 20 °F 30.21 in NNW 4.9 mph 12 mph 56% 0.01 in 295 W/m2
12:39 33.8 °F 19.6 °F 30.21 in North 3.8 mph 12 mph 55.7% 0.00 in 301 W/m2
12:44 33.7 °F 20 °F 30.21 in NW 3.7 mph 12 mph 56.9% 0.00 in 304 W/m2
12:49 33.7 °F 20.3 °F 30.21 in NNW 2.9 mph 12 mph 57.6% 0.00 in 294 W/m2
12:54 33.8 °F 19.9 °F 30.20 in NNW 3.5 mph 12 mph 56.4% 0.00 in 288 W/m2
12:59 33.8 °F 19.9 °F 30.20 in North 4.5 mph 12 mph 56.3% 0.00 in 281 W/m2
13:04 33.8 °F 20.1 °F 30.20 in NNW 3.6 mph 12 mph 56.8% 0.00 in 287 W/m2
13:09 33.8 °F 19.9 °F 30.20 in NNW 3.9 mph 10 mph 56.3% 0.00 in 285 W/m2
13:14 33.6 °F 19.5 °F 30.19 in North 3 mph 10 mph 55.7% 0.00 in 258 W/m2
13:19 33.6 °F 19.6 °F 30.19 in NNE 1.1 mph 10 mph 56.1% 0.00 in 258 W/m2
13:24 33.7 °F 19.6 °F 30.19 in NW 1.9 mph 10 mph 56% 0.00 in 232 W/m2
13:29 33.7 °F 19.4 °F 30.19 in NNW 1.6 mph 11 mph 55.2% 0.00 in 262 W/m2
13:34 33.8 °F 19.1 °F 30.19 in WNW 4.6 mph 12 mph 54.5% 0.00 in 121 W/m2
13:39 34 °F 19.1 °F 30.19 in WNW 5.1 mph 15 mph 54% 0.00 in 181 W/m2
13:44 34.2 °F 19.8 °F 30.19 in WNW 1.4 mph 15 mph 55.3% 0.00 in 190 W/m2
13:49 34.3 °F 19.3 °F 30.19 in NW 6 mph 15 mph 53.6% 0.00 in 336 W/m2
13:54 34.2 °F 18.4 °F 30.19 in NW 4.4 mph 15 mph 52% 0.00 in 513 W/m2
13:59 34 °F 18.2 °F 30.19 in NW 6.5 mph 15 mph 52% 0.00 in 513 W/m2
14:04 33.9 °F 18.2 °F 30.19 in NW 4.9 mph 15 mph 52.2% 0.00 in 77 W/m2
14:09 33.8 °F 18.3 °F 30.19 in NW 5.5 mph 14 mph 52.5% 0.00 in 461 W/m2
14:14 33.5 °F 18.6 °F 30.18 in North 3 mph 14 mph 53.8% 0.00 in 461 W/m2
14:19 33.5 °F 18.6 °F 30.18 in NW 2.2 mph 14 mph 53.8% 0.00 in 134 W/m2
14:30 33.6 °F 18.3 °F 30.18 in NW 4 mph 15 mph 53% 0.00 in 125 W/m2
15:00 33.7 °F 18 °F 30.18 in NW 4 mph 13 mph 52% 0.01 in 263 W/m2
15:30 32.5 °F 16.9 °F 30.18 in NW 5 mph 16 mph 52% 0.01 in 57 W/m2
16:04 31.6 °F 16.4 °F 30.19 in NW 6.8 mph 16 mph 52.9% 0.01 in 57 W/m2
16:09 31.3 °F 15.8 °F 30.20 in NW 6.9 mph 14 mph 52% 0.01 in 40 W/m2
16:14 31.1 °F 15.5 °F 30.20 in NW 6.8 mph 15 mph 52% 0.01 in 35 W/m2
16:19 30.8 °F 15.1 °F 30.19 in NW 5.7 mph 15 mph 51.7% 0.01 in 37 W/m2
16:24 30.5 °F 15 °F 30.19 in NW 6.6 mph 15 mph 52% 0.01 in 37 W/m2
16:29 30.3 °F 14.8 °F 30.19 in NW 6.6 mph 15 mph 52% 0.01 in 35 W/m2
16:34 30.1 °F 14.4 °F 30.20 in NW 5.8 mph 15 mph 51.7% 0.01 in 25 W/m2
16:39 29.9 °F 14.2 °F 30.20 in NW 6 mph 16 mph 51.6% 0.00 in 21 W/m2
16:44 29.8 °F 14 °F 30.19 in NW 6.5 mph 16 mph 51.3% 0.00 in 21 W/m2
16:49 29.6 °F 14.2 °F 30.20 in WNW 4.8 mph 16 mph 52% 0.00 in 18 W/m2
16:54 29.4 °F 14 °F 30.20 in WNW 6.3 mph 16 mph 52% 0.00 in 18 W/m2
16:59 29.3 °F 13.9 °F 30.21 in NW 5.6 mph 16 mph 52% 0.00 in 16 W/m2
17:04 29.2 °F 14.2 °F 30.21 in NW 3.2 mph 16 mph 53% 0.00 in 11 W/m2
17:09 29 °F 14 °F 30.21 in NW 4.8 mph 11 mph 53% 0.00 in 9 W/m2
17:14 28.9 °F 13.9 °F 30.21 in NW 5.7 mph 11 mph 53% 0.00 in 0 W/m2
17:19 28.8 °F 13.8 °F 30.21 in WNW 3.8 mph 11 mph 53% 0.00 in 0 W/m2
17:24 28.7 °F 13.7 °F 30.21 in WNW 4.8 mph 11 mph 53% 0.00 in 0 W/m2
17:29 28.5 °F 13.6 °F 30.22 in WNW 5 mph 11 mph 53% 0.00 in 0 W/m2
17:34 28.5 °F 13.5 °F 30.23 in WNW 4 mph 11 mph 53% 0.00 in 0 W/m2
17:39 28.4 °F 13.8 °F 30.23 in NW 3.8 mph 9 mph 54% 0.00 in 0 W/m2
17:44 28.2 °F 13.7 °F 30.23 in NW 3.9 mph 9 mph 54% 0.00 in 0 W/m2
17:49 28.1 °F 13.6 °F 30.23 in NW 4.2 mph 11 mph 54% 0.00 in 0 W/m2
17:54 28.1 °F 13.8 °F 30.23 in NW 2.2 mph 11 mph 54.4% 0.00 in 0 W/m2
17:59 28 °F 13.8 °F 30.24 in NW 3.3 mph 11 mph 54.7% 0.00 in 0 W/m2
18:04 27.9 °F 13.8 °F 30.24 in NW 3.3 mph 11 mph 55% 0.00 in 0 W/m2
18:09 27.8 °F 13.8 °F 30.24 in WNW 4 mph 11 mph 55% 0.00 in 0 W/m2
18:14 27.7 °F 13.7 °F 30.24 in NW 3.6 mph 11 mph 55% 0.00 in 0 W/m2
18:19 27.7 °F 13.6 °F 30.24 in WNW 5.4 mph 12 mph 55% 0.00 in 0 W/m2
18:24 27.6 °F 13.6 °F 30.25 in WNW 5.6 mph 13 mph 55% 0.00 in 0 W/m2
18:29 27.6 °F 13.6 °F 30.24 in WNW 5.9 mph 15 mph 55% 0.00 in 0 W/m2
18:34 27.6 °F 13.5 °F 30.24 in NW 4.1 mph 15 mph 55% 0.00 in 0 W/m2
18:39 27.5 °F 13.8 °F 30.24 in NW 5.5 mph 12 mph 55.9% 0.00 in 0 W/m2
18:44 27.4 °F 13.8 °F 30.24 in NW 4.9 mph 13 mph 56% 0.00 in 0 W/m2
18:49 27.3 °F 14 °F 30.24 in NW 3.9 mph 13 mph 56.7% 0.00 in 0 W/m2
18:54 27.2 °F 14 °F 30.24 in NW 1.8 mph 13 mph 57% 0.00 in 0 W/m2
18:59 27.1 °F 13.9 °F 30.25 in WNW 1.8 mph 13 mph 57% 0.00 in 0 W/m2
19:04 27 °F 13.8 °F 30.25 in NW 1.7 mph 13 mph 57% 0.00 in 0 W/m2
19:09 26.9 °F 13.8 °F 30.25 in NW 0.5 mph 9 mph 57.4% 0.00 in 0 W/m2
19:14 26.7 °F 14 °F 30.25 in Calm   9 mph 58% 0.00 in 0 W/m2
19:19 26.6 °F 13.8 °F 30.25 in Calm   9 mph 58% 0.00 in 0 W/m2
19:24 26.4 °F 13.9 °F 30.25 in Calm   9 mph 58.6% 0.00 in 0 W/m2
19:29 26.3 °F 13.9 °F 30.25 in Calm   9 mph 59% 0.00 in 0 W/m2
19:34 26.2 °F 13.9 °F 30.25 in NW 1.1 mph 9 mph 59.2% 0.00 in 0 W/m2
19:39 26.1 °F 13.9 °F 30.25 in WNW 3.7 mph 7 mph 59.6% 0.00 in 0 W/m2
19:44 26 °F 14 °F 30.25 in WNW 1.2 mph 7 mph 60% 0.00 in 0 W/m2
19:49 25.9 °F 14 °F 30.26 in WNW 2.4 mph 7 mph 60% 0.00 in 0 W/m2
19:54 25.9 °F 13.9 °F 30.26 in WNW 3.4 mph 11 mph 60% 0.00 in 0 W/m2
19:59 25.9 °F 13.9 °F 30.26 in WNW 2.6 mph 11 mph 60% 0.00 in 0 W/m2
20:04 25.9 °F 14 °F 30.25 in NW 2.6 mph 3 mph 60% 0.00 in 0 W/m2
20:09 25.9 °F 14.1 °F 30.26 in WNW 2.7 mph 11 mph 60.5% 0.00 in 0 W/m2
20:14 25.9 °F 13.8 °F 30.26 in WNW 3.7 mph 12 mph 59.7% 0.00 in 0 W/m2
20:19 25.9 °F 13.5 °F 30.26 in WNW 4.2 mph 12 mph 59.1% 0.00 in 0 W/m2
20:24 25.9 °F 13.6 °F 30.26 in WNW 5.2 mph 12 mph 59% 0.00 in 0 W/m2
20:29 25.9 °F 13.6 °F 30.26 in WNW 3.9 mph 15 mph 59.2% 0.00 in 0 W/m2
20:34 25.9 °F 13.7 °F 30.26 in WNW 4 mph 15 mph 59.4% 0.00 in 0 W/m2
20:39 25.8 °F 13.7 °F 30.27 in WNW 4.9 mph 10 mph 59.7% 0.00 in 0 W/m2
20:44 25.8 °F 13.5 °F 30.27 in WNW 3.1 mph 10 mph 59.2% 0.00 in 0 W/m2
20:49 25.7 °F 13.5 °F 30.27 in WNW 3.1 mph 10 mph 59.2% 0.00 in 0 W/m2
20:54 25.6 °F 13.7 °F 30.27 in WNW 3.5 mph 10 mph 60% 0.00 in 0 W/m2
20:59 25.5 °F 13.6 °F 30.27 in WNW 4.3 mph 12 mph 60% 0.00 in 0 W/m2
21:04 25.5 °F 13.5 °F 30.27 in WNW 2.7 mph 12 mph 60% 0.00 in 0 W/m2
21:09 25.4 °F 13.5 °F 30.27 in NW 0.3 mph 5 mph 60% 0.00 in 0 W/m2
21:14 25.3 °F 13.4 °F 30.27 in NW 1.2 mph 5 mph 60% 0.00 in 0 W/m2
21:19 25.2 °F 13.3 °F 30.26 in NW 1.6 mph 5 mph 60% 0.00 in 0 W/m2
21:24 25.1 °F 13.2 °F 30.26 in Calm   5 mph 60% 0.00 in 0 W/m2
21:29 25 °F 13.4 °F 30.27 in NW 1.4 mph 6 mph 60.9% 0.00 in 0 W/m2
21:34 24.9 °F 13.3 °F 30.27 in NW 2.1 mph 6 mph 61% 0.00 in 0 W/m2
21:39 24.8 °F 13.2 °F 30.27 in West 0.8 mph 6 mph 61% 0.00 in 0 W/m2
21:44 24.7 °F 13.1 °F 30.26 in WNW 2.6 mph 7 mph 61% 0.00 in 0 W/m2
21:49 24.6 °F 12.8 °F 30.26 in NW 3.7 mph 10 mph 60.2% 0.00 in 0 W/m2
21:54 24.5 °F 12.7 °F 30.26 in WNW 3.5 mph 10 mph 60% 0.00 in 0 W/m2
21:59 24.5 °F 12.6 °F 30.26 in NW 4.9 mph 12 mph 60% 0.00 in 0 W/m2
22:04 24.6 °F 12.7 °F 30.26 in NW 2.2 mph 12 mph 60% 0.00 in 0 W/m2
22:09 24.5 °F 12.6 °F 30.26 in NW 1.2 mph 6 mph 60% 0.00 in 0 W/m2
22:14 24.5 °F 12.6 °F 30.26 in NW 4.3 mph 9 mph 60% 0.00 in 0 W/m2
22:19 24.4 °F 12.5 °F 30.26 in NW 3.8 mph 9 mph 60% 0.00 in 0 W/m2
22:24 24.4 °F 12.5 °F 30.26 in NW 3.1 mph 9 mph 60% 0.00 in 0 W/m2
22:29 24.4 °F 12.2 °F 30.27 in NNW 0.2 mph 9 mph 59.3% 0.00 in 0 W/m2
22:34 24.3 °F 12.2 °F 30.27 in WNW 5 mph 11 mph 59.3% 0.00 in 0 W/m2
22:39 24.3 °F 12.1 °F 30.27 in WNW 3.5 mph 11 mph 59% 0.00 in 0 W/m2
22:44 24.3 °F 12.1 °F 30.27 in NW 3.4 mph 11 mph 59% 0.00 in 0 W/m2
22:49 24.3 °F 11.7 °F 30.28 in NW 0.8 mph 11 mph 58.1% 0.00 in 0 W/m2
22:54 24.2 °F 11.7 °F 30.28 in NW 0.4 mph 11 mph 58.3% 0.00 in 0 W/m2
22:59 24.2 °F 11.8 °F 30.27 in NW 2.2 mph 11 mph 58.8% 0.00 in 0 W/m2
23:09 24 °F 11.7 °F 30.28 in Calm     59% 0.00 in 0 W/m2
23:14 23.8 °F 11.6 °F 30.28 in NW 2.4 mph 7 mph 59% 0.00 in 0 W/m2
23:19 23.7 °F 11.5 °F 30.28 in NW 1.9 mph 7 mph 59% 0.00 in 0 W/m2
23:24 23.6 °F 11.4 °F 30.27 in NW 0.8 mph 7 mph 59.2% 0.00 in 0 W/m2
23:29 23.5 °F 11.6 °F 30.27 in NW 1.1 mph 7 mph 60% 0.00 in 0 W/m2
23:34 23.3 °F 11.5 °F 30.27 in NW 1.1 mph 7 mph 60% 0.00 in 0 W/m2
23:39 23.1 °F 11.3 °F 30.28 in NW 0.8 mph 6 mph 60% 0.00 in 0 W/m2
23:44 23 °F 11.2 °F 30.28 in NW 0.1 mph 6 mph 60% 0.00 in 0 W/m2
23:49 22.9 °F 11.2 °F 30.28 in NW 0.7 mph 6 mph 60.4% 0.00 in 0 W/m2
23:54 22.6 °F 11.2 °F 30.29 in WNW 1.8 mph 7 mph 61% 0.00 in 0 W/m2
23:59 22.5 °F 11.1 °F 30.29 in NW 3.9 mph 10 mph 61% 0.00 in 0 W/m2
Hartford County Weather
Compliments of Weather Underground - 2 mb